sensor_id;sensor_type;location;lat;lon;timestamp;P1;durP1;ratioP1;P2;durP2;ratioP2
10005;SDS011;5042;42.626;23.382;2023-11-19T00:02:24;4.43;;;4.03;;
10005;SDS011;5042;42.626;23.382;2023-11-19T00:04:51;3.97;;;3.67;;
10005;SDS011;5042;42.626;23.382;2023-11-19T00:07:20;4.30;;;3.90;;
10005;SDS011;5042;42.626;23.382;2023-11-19T00:09:47;4.10;;;3.80;;
10005;SDS011;5042;42.626;23.382;2023-11-19T00:12:15;3.90;;;3.60;;
10005;SDS011;5042;42.626;23.382;2023-11-19T00:14:41;4.20;;;3.90;;
10005;SDS011;5042;42.626;23.382;2023-11-19T00:17:09;3.83;;;3.43;;
10005;SDS011;5042;42.626;23.382;2023-11-19T00:19:36;3.60;;;3.30;;
10005;SDS011;5042;42.626;23.382;2023-11-19T00:22:03;4.07;;;3.73;;
10005;SDS011;5042;42.626;23.382;2023-11-19T00:24:31;3.23;;;3.03;;
10005;SDS011;5042;42.626;23.382;2023-11-19T00:26:57;3.80;;;3.50;;
10005;SDS011;5042;42.626;23.382;2023-11-19T00:29:24;4.00;;;3.70;;
10005;SDS011;5042;42.626;23.382;2023-11-19T00:31:51;4.07;;;3.40;;
10005;SDS011;5042;42.626;23.382;2023-11-19T00:34:18;4.00;;;3.70;;
10005;SDS011;5042;42.626;23.382;2023-11-19T00:36:46;3.83;;;3.53;;
10005;SDS011;5042;42.626;23.382;2023-11-19T00:39:14;3.90;;;3.60;;
10005;SDS011;5042;42.626;23.382;2023-11-19T00:41:42;3.63;;;3.40;;
10005;SDS011;5042;42.626;23.382;2023-11-19T00:44:11;4.00;;;3.70;;
10005;SDS011;5042;42.626;23.382;2023-11-19T00:46:38;4.17;;;3.80;;
10005;SDS011;5042;42.626;23.382;2023-11-19T00:49:04;3.43;;;3.23;;
10005;SDS011;5042;42.626;23.382;2023-11-19T00:51:31;4.13;;;3.63;;
10005;SDS011;5042;42.626;23.382;2023-11-19T00:53:58;4.30;;;4.00;;
10005;SDS011;5042;42.626;23.382;2023-11-19T00:56:26;4.03;;;3.73;;
10005;SDS011;5042;42.626;23.382;2023-11-19T00:58:54;3.90;;;3.60;;
10005;SDS011;5042;42.626;23.382;2023-11-19T01:01:22;3.80;;;3.50;;
10005;SDS011;5042;42.626;23.382;2023-11-19T01:03:49;3.73;;;3.43;;
10005;SDS011;5042;42.626;23.382;2023-11-19T01:06:26;3.73;;;3.47;;
10005;SDS011;5042;42.626;23.382;2023-11-19T01:08:53;4.17;;;3.73;;
10005;SDS011;5042;42.626;23.382;2023-11-19T01:11:21;4.13;;;3.77;;
10005;SDS011;5042;42.626;23.382;2023-11-19T01:13:49;4.30;;;3.90;;
10005;SDS011;5042;42.626;23.382;2023-11-19T01:16:17;4.43;;;4.03;;
10005;SDS011;5042;42.626;23.382;2023-11-19T01:18:46;3.90;;;3.60;;
10005;SDS011;5042;42.626;23.382;2023-11-19T01:21:13;3.90;;;3.60;;
10005;SDS011;5042;42.626;23.382;2023-11-19T01:23:40;4.43;;;4.03;;
10005;SDS011;5042;42.626;23.382;2023-11-19T01:26:08;4.20;;;3.80;;
10005;SDS011;5042;42.626;23.382;2023-11-19T01:28:37;3.33;;;3.13;;
10005;SDS011;5042;42.626;23.382;2023-11-19T01:31:04;2.80;;;2.53;;
10005;SDS011;5042;42.626;23.382;2023-11-19T01:33:35;3.77;;;3.50;;
10005;SDS011;5042;42.626;23.382;2023-11-19T01:36:02;3.90;;;3.60;;
10005;SDS011;5042;42.626;23.382;2023-11-19T01:38:29;4.10;;;3.80;;
10005;SDS011;5042;42.626;23.382;2023-11-19T01:40:57;4.23;;;3.23;;
10005;SDS011;5042;42.626;23.382;2023-11-19T01:43:31;3.67;;;3.37;;
10005;SDS011;5042;42.626;23.382;2023-11-19T01:45:59;3.70;;;3.40;;
10005;SDS011;5042;42.626;23.382;2023-11-19T01:48:26;3.63;;;3.33;;
10005;SDS011;5042;42.626;23.382;2023-11-19T01:50:54;3.20;;;3.00;;
10005;SDS011;5042;42.626;23.382;2023-11-19T01:53:22;3.63;;;3.33;;
10005;SDS011;5042;42.626;23.382;2023-11-19T01:55:49;3.67;;;3.37;;
10005;SDS011;5042;42.626;23.382;2023-11-19T01:58:17;3.50;;;3.30;;
10005;SDS011;5042;42.626;23.382;2023-11-19T02:00:44;3.83;;;3.53;;
10005;SDS011;5042;42.626;23.382;2023-11-19T02:03:11;3.53;;;3.23;;
10005;SDS011;5042;42.626;23.382;2023-11-19T02:05:39;4.17;;;3.50;;
10005;SDS011;5042;42.626;23.382;2023-11-19T02:08:08;3.43;;;3.17;;
10005;SDS011;5042;42.626;23.382;2023-11-19T02:10:35;3.47;;;3.17;;
10005;SDS011;5042;42.626;23.382;2023-11-19T02:13:02;3.13;;;2.83;;
10005;SDS011;5042;42.626;23.382;2023-11-19T02:15:31;3.50;;;3.20;;
10005;SDS011;5042;42.626;23.382;2023-11-19T02:20:44;3.20;;;3.00;;
10005;SDS011;5042;42.626;23.382;2023-11-19T02:23:12;3.43;;;3.13;;
10005;SDS011;5042;42.626;23.382;2023-11-19T02:25:40;3.20;;;3.00;;
10005;SDS011;5042;42.626;23.382;2023-11-19T02:28:09;3.40;;;3.13;;
10005;SDS011;5042;42.626;23.382;2023-11-19T02:30:37;3.70;;;3.00;;
10005;SDS011;5042;42.626;23.382;2023-11-19T02:33:04;3.07;;;2.87;;
10005;SDS011;5042;42.626;23.382;2023-11-19T02:35:31;3.53;;;3.23;;
10005;SDS011;5042;42.626;23.382;2023-11-19T02:37:59;3.20;;;3.00;;
10005;SDS011;5042;42.626;23.382;2023-11-19T02:40:26;3.40;;;3.20;;
10005;SDS011;5042;42.626;23.382;2023-11-19T02:42:52;3.07;;;2.87;;
10005;SDS011;5042;42.626;23.382;2023-11-19T02:45:23;3.10;;;2.80;;
10005;SDS011;5042;42.626;23.382;2023-11-19T02:47:50;3.10;;;2.80;;
10005;SDS011;5042;42.626;23.382;2023-11-19T02:50:17;3.00;;;2.80;;
10005;SDS011;5042;42.626;23.382;2023-11-19T02:52:50;3.87;;;3.53;;
10005;SDS011;5042;42.626;23.382;2023-11-19T02:55:18;3.50;;;3.20;;
10005;SDS011;5042;42.626;23.382;2023-11-19T02:57:46;3.40;;;3.10;;
10005;SDS011;5042;42.626;23.382;2023-11-19T03:00:14;3.40;;;3.10;;
10005;SDS011;5042;42.626;23.382;2023-11-19T03:02:43;3.70;;;3.40;;
10005;SDS011;5042;42.626;23.382;2023-11-19T03:05:11;3.70;;;3.40;;
10005;SDS011;5042;42.626;23.382;2023-11-19T03:07:40;3.53;;;2.90;;
10005;SDS011;5042;42.626;23.382;2023-11-19T03:10:09;3.10;;;2.90;;
10005;SDS011;5042;42.626;23.382;2023-11-19T03:12:38;3.13;;;2.90;;
10005;SDS011;5042;42.626;23.382;2023-11-19T03:15:06;3.50;;;3.20;;
10005;SDS011;5042;42.626;23.382;2023-11-19T03:17:35;3.50;;;3.17;;
10005;SDS011;5042;42.626;23.382;2023-11-19T03:20:05;3.03;;;2.83;;
10005;SDS011;5042;42.626;23.382;2023-11-19T03:22:34;3.20;;;3.00;;
10005;SDS011;5042;42.626;23.382;2023-11-19T03:25:03;3.30;;;3.10;;
10005;SDS011;5042;42.626;23.382;2023-11-19T03:27:33;3.10;;;2.90;;
10005;SDS011;5042;42.626;23.382;2023-11-19T03:30:01;3.53;;;3.23;;
10005;SDS011;5042;42.626;23.382;2023-11-19T03:32:29;3.27;;;3.00;;
10005;SDS011;5042;42.626;23.382;2023-11-19T03:34:56;3.80;;;3.50;;
10005;SDS011;5042;42.626;23.382;2023-11-19T03:37:25;3.23;;;3.03;;
10005;SDS011;5042;42.626;23.382;2023-11-19T03:39:53;3.23;;;3.03;;
10005;SDS011;5042;42.626;23.382;2023-11-19T03:42:19;3.23;;;3.03;;
10005;SDS011;5042;42.626;23.382;2023-11-19T03:44:47;2.70;;;2.50;;
10005;SDS011;5042;42.626;23.382;2023-11-19T03:47:14;3.30;;;3.00;;
10005;SDS011;5042;42.626;23.382;2023-11-19T03:49:41;2.90;;;2.70;;
10005;SDS011;5042;42.626;23.382;2023-11-19T03:52:09;3.70;;;3.40;;
10005;SDS011;5042;42.626;23.382;2023-11-19T03:54:37;3.03;;;2.83;;
10005;SDS011;5042;42.626;23.382;2023-11-19T03:57:04;3.20;;;3.00;;
10005;SDS011;5042;42.626;23.382;2023-11-19T03:59:31;3.03;;;2.83;;
10005;SDS011;5042;42.626;23.382;2023-11-19T04:01:58;3.30;;;3.10;;
10005;SDS011;5042;42.626;23.382;2023-11-19T04:04:25;3.60;;;3.30;;
10005;SDS011;5042;42.626;23.382;2023-11-19T04:06:52;4.63;;;3.53;;
10005;SDS011;5042;42.626;23.382;2023-11-19T04:09:19;3.20;;;3.00;;
10005;SDS011;5042;42.626;23.382;2023-11-19T04:11:48;3.73;;;3.43;;
10005;SDS011;5042;42.626;23.382;2023-11-19T04:14:14;3.77;;;3.30;;
10005;SDS011;5042;42.626;23.382;2023-11-19T04:16:43;3.33;;;3.13;;
10005;SDS011;5042;42.626;23.382;2023-11-19T04:19:10;3.60;;;3.30;;
10005;SDS011;5042;42.626;23.382;2023-11-19T04:21:37;3.50;;;3.20;;
10005;SDS011;5042;42.626;23.382;2023-11-19T04:24:06;3.70;;;3.40;;
10005;SDS011;5042;42.626;23.382;2023-11-19T04:26:34;3.90;;;3.60;;
10005;SDS011;5042;42.626;23.382;2023-11-19T04:29:03;4.20;;;3.77;;
10005;SDS011;5042;42.626;23.382;2023-11-19T04:31:30;3.37;;;3.17;;
10005;SDS011;5042;42.626;23.382;2023-11-19T04:33:57;3.63;;;3.33;;
10005;SDS011;5042;42.626;23.382;2023-11-19T04:36:25;3.70;;;3.40;;
10005;SDS011;5042;42.626;23.382;2023-11-19T04:38:52;3.60;;;3.30;;
10005;SDS011;5042;42.626;23.382;2023-11-19T04:41:19;3.60;;;3.30;;
10005;SDS011;5042;42.626;23.382;2023-11-19T04:43:46;3.57;;;3.27;;
10005;SDS011;5042;42.626;23.382;2023-11-19T04:46:14;4.77;;;3.10;;
10005;SDS011;5042;42.626;23.382;2023-11-19T04:48:41;3.63;;;3.33;;
10005;SDS011;5042;42.626;23.382;2023-11-19T04:51:07;3.40;;;3.10;;
10005;SDS011;5042;42.626;23.382;2023-11-19T04:53:35;3.80;;;3.50;;
10005;SDS011;5042;42.626;23.382;2023-11-19T04:56:07;3.50;;;3.20;;
10005;SDS011;5042;42.626;23.382;2023-11-19T04:58:35;3.13;;;2.90;;
10005;SDS011;5042;42.626;23.382;2023-11-19T05:01:02;3.70;;;3.40;;
10005;SDS011;5042;42.626;23.382;2023-11-19T05:03:30;3.33;;;3.03;;
10005;SDS011;5042;42.626;23.382;2023-11-19T05:05:58;3.63;;;3.30;;
10005;SDS011;5042;42.626;23.382;2023-11-19T05:08:24;3.33;;;3.03;;
10005;SDS011;5042;42.626;23.382;2023-11-19T05:10:51;3.20;;;3.00;;
10005;SDS011;5042;42.626;23.382;2023-11-19T05:13:18;3.33;;;3.03;;
10005;SDS011;5042;42.626;23.382;2023-11-19T05:15:45;3.77;;;3.47;;
10005;SDS011;5042;42.626;23.382;2023-11-19T05:18:11;3.33;;;3.03;;
10005;SDS011;5042;42.626;23.382;2023-11-19T05:20:40;3.53;;;3.23;;
10005;SDS011;5042;42.626;23.382;2023-11-19T05:23:06;3.57;;;3.30;;
10005;SDS011;5042;42.626;23.382;2023-11-19T05:25:33;2.80;;;2.60;;
10005;SDS011;5042;42.626;23.382;2023-11-19T05:28:00;3.40;;;3.10;;
10005;SDS011;5042;42.626;23.382;2023-11-19T05:30:27;3.30;;;3.10;;
10005;SDS011;5042;42.626;23.382;2023-11-19T05:32:54;5.43;;;3.40;;
10005;SDS011;5042;42.626;23.382;2023-11-19T05:35:20;2.83;;;2.63;;
10005;SDS011;5042;42.626;23.382;2023-11-19T05:37:49;3.17;;;2.97;;
10005;SDS011;5042;42.626;23.382;2023-11-19T05:40:15;2.70;;;2.50;;
10005;SDS011;5042;42.626;23.382;2023-11-19T05:42:42;3.23;;;2.70;;
10005;SDS011;5042;42.626;23.382;2023-11-19T05:45:11;3.20;;;2.90;;
10005;SDS011;5042;42.626;23.382;2023-11-19T05:47:38;3.40;;;3.10;;
10005;SDS011;5042;42.626;23.382;2023-11-19T05:50:05;3.40;;;3.10;;
10005;SDS011;5042;42.626;23.382;2023-11-19T05:52:33;3.17;;;2.87;;
10005;SDS011;5042;42.626;23.382;2023-11-19T05:55:01;4.23;;;3.10;;
10005;SDS011;5042;42.626;23.382;2023-11-19T05:57:29;3.83;;;3.10;;
10005;SDS011;5042;42.626;23.382;2023-11-19T05:59:56;3.53;;;3.23;;
10005;SDS011;5042;42.626;23.382;2023-11-19T06:02:24;3.40;;;3.10;;
10005;SDS011;5042;42.626;23.382;2023-11-19T06:04:52;2.87;;;2.67;;
10005;SDS011;5042;42.626;23.382;2023-11-19T06:07:19;3.20;;;2.90;;
10005;SDS011;5042;42.626;23.382;2023-11-19T06:09:45;3.57;;;3.27;;
10005;SDS011;5042;42.626;23.382;2023-11-19T06:12:13;3.70;;;3.40;;
10005;SDS011;5042;42.626;23.382;2023-11-19T06:14:40;3.50;;;3.20;;
10005;SDS011;5042;42.626;23.382;2023-11-19T06:17:07;3.40;;;3.10;;
10005;SDS011;5042;42.626;23.382;2023-11-19T06:19:36;3.37;;;3.17;;
10005;SDS011;5042;42.626;23.382;2023-11-19T06:22:03;4.07;;;3.70;;
10005;SDS011;5042;42.626;23.382;2023-11-19T06:24:30;3.90;;;3.50;;
10005;SDS011;5042;42.626;23.382;2023-11-19T06:26:56;3.73;;;3.43;;
10005;SDS011;5042;42.626;23.382;2023-11-19T06:29:24;3.43;;;3.23;;
10005;SDS011;5042;42.626;23.382;2023-11-19T06:31:51;3.80;;;3.50;;
10005;SDS011;5042;42.626;23.382;2023-11-19T06:34:18;3.63;;;3.30;;
10005;SDS011;5042;42.626;23.382;2023-11-19T06:36:45;3.03;;;2.83;;
10005;SDS011;5042;42.626;23.382;2023-11-19T06:39:13;3.80;;;3.50;;
10005;SDS011;5042;42.626;23.382;2023-11-19T06:41:44;4.37;;;3.53;;
10005;SDS011;5042;42.626;23.382;2023-11-19T06:44:11;3.57;;;3.27;;
10005;SDS011;5042;42.626;23.382;2023-11-19T06:46:39;3.97;;;3.60;;
10005;SDS011;5042;42.626;23.382;2023-11-19T06:49:06;4.43;;;4.03;;
10005;SDS011;5042;42.626;23.382;2023-11-19T06:51:33;3.73;;;3.43;;
10005;SDS011;5042;42.626;23.382;2023-11-19T06:54:00;3.80;;;3.50;;
10005;SDS011;5042;42.626;23.382;2023-11-19T06:56:27;3.77;;;3.43;;
10005;SDS011;5042;42.626;23.382;2023-11-19T06:58:54;4.30;;;3.90;;
10005;SDS011;5042;42.626;23.382;2023-11-19T07:01:20;4.10;;;3.70;;
10005;SDS011;5042;42.626;23.382;2023-11-19T07:03:49;3.70;;;3.40;;
10005;SDS011;5042;42.626;23.382;2023-11-19T07:06:17;3.83;;;3.53;;
10005;SDS011;5042;42.626;23.382;2023-11-19T07:08:44;3.43;;;3.20;;
10005;SDS011;5042;42.626;23.382;2023-11-19T07:11:11;3.93;;;3.63;;
10005;SDS011;5042;42.626;23.382;2023-11-19T07:13:39;4.10;;;3.70;;
10005;SDS011;5042;42.626;23.382;2023-11-19T07:16:07;4.00;;;3.70;;
10005;SDS011;5042;42.626;23.382;2023-11-19T07:18:35;4.40;;;4.00;;
10005;SDS011;5042;42.626;23.382;2023-11-19T07:21:05;3.70;;;3.40;;
10005;SDS011;5042;42.626;23.382;2023-11-19T07:23:35;4.17;;;3.77;;
10005;SDS011;5042;42.626;23.382;2023-11-19T07:26:04;4.10;;;3.80;;
10005;SDS011;5042;42.626;23.382;2023-11-19T07:28:32;5.77;;;4.57;;
10005;SDS011;5042;42.626;23.382;2023-11-19T07:30:58;4.30;;;3.90;;
10005;SDS011;5042;42.626;23.382;2023-11-19T07:33:25;3.93;;;3.63;;
10005;SDS011;5042;42.626;23.382;2023-11-19T07:35:52;3.97;;;3.60;;
10005;SDS011;5042;42.626;23.382;2023-11-19T07:38:20;3.80;;;3.43;;
10005;SDS011;5042;42.626;23.382;2023-11-19T07:40:47;3.90;;;3.60;;
10005;SDS011;5042;42.626;23.382;2023-11-19T07:43:14;4.03;;;3.40;;
10005;SDS011;5042;42.626;23.382;2023-11-19T07:45:41;4.63;;;3.80;;
10005;SDS011;5042;42.626;23.382;2023-11-19T07:48:08;5.20;;;4.70;;
10005;SDS011;5042;42.626;23.382;2023-11-19T07:50:36;4.40;;;4.00;;
10005;SDS011;5042;42.626;23.382;2023-11-19T07:53:02;3.63;;;3.33;;
10005;SDS011;5042;42.626;23.382;2023-11-19T07:55:31;3.90;;;3.60;;
10005;SDS011;5042;42.626;23.382;2023-11-19T07:57:57;3.43;;;3.23;;
10005;SDS011;5042;42.626;23.382;2023-11-19T08:00:24;4.53;;;4.13;;
10005;SDS011;5042;42.626;23.382;2023-11-19T08:02:51;4.40;;;4.00;;
10005;SDS011;5042;42.626;23.382;2023-11-19T08:05:18;4.20;;;3.80;;
10005;SDS011;5042;42.626;23.382;2023-11-19T08:07:45;4.30;;;3.90;;
10005;SDS011;5042;42.626;23.382;2023-11-19T08:10:12;5.33;;;4.10;;
10005;SDS011;5042;42.626;23.382;2023-11-19T08:12:41;3.90;;;3.60;;
10005;SDS011;5042;42.626;23.382;2023-11-19T08:15:08;3.70;;;3.40;;
10005;SDS011;5042;42.626;23.382;2023-11-19T08:17:35;3.80;;;3.50;;
10005;SDS011;5042;42.626;23.382;2023-11-19T08:20:03;4.67;;;3.27;;
10005;SDS011;5042;42.626;23.382;2023-11-19T08:22:33;4.23;;;3.83;;
10005;SDS011;5042;42.626;23.382;2023-11-19T08:24:59;4.30;;;3.90;;
10005;SDS011;5042;42.626;23.382;2023-11-19T08:27:26;3.80;;;3.50;;
10005;SDS011;5042;42.626;23.382;2023-11-19T08:29:54;4.33;;;3.93;;
10005;SDS011;5042;42.626;23.382;2023-11-19T08:32:22;4.23;;;3.93;;
10005;SDS011;5042;42.626;23.382;2023-11-19T08:34:48;4.23;;;3.47;;
10005;SDS011;5042;42.626;23.382;2023-11-19T08:37:15;4.30;;;3.97;;
10005;SDS011;5042;42.626;23.382;2023-11-19T08:39:45;4.93;;;4.43;;
10005;SDS011;5042;42.626;23.382;2023-11-19T08:42:12;4.40;;;4.00;;
10005;SDS011;5042;42.626;23.382;2023-11-19T08:44:39;3.83;;;3.43;;
10005;SDS011;5042;42.626;23.382;2023-11-19T08:47:10;4.27;;;3.87;;
10005;SDS011;5042;42.626;23.382;2023-11-19T08:49:38;4.73;;;4.23;;
10005;SDS011;5042;42.626;23.382;2023-11-19T08:52:05;4.40;;;4.00;;
10005;SDS011;5042;42.626;23.382;2023-11-19T08:54:33;4.33;;;3.87;;
10005;SDS011;5042;42.626;23.382;2023-11-19T08:56:59;3.90;;;3.60;;
10005;SDS011;5042;42.626;23.382;2023-11-19T08:59:28;4.27;;;3.87;;
10005;SDS011;5042;42.626;23.382;2023-11-19T09:01:55;4.00;;;3.60;;
10005;SDS011;5042;42.626;23.382;2023-11-19T09:04:23;4.10;;;3.53;;
10005;SDS011;5042;42.626;23.382;2023-11-19T09:06:50;3.90;;;3.50;;
10005;SDS011;5042;42.626;23.382;2023-11-19T09:09:17;3.53;;;3.10;;
10005;SDS011;5042;42.626;23.382;2023-11-19T09:11:44;4.27;;;3.87;;
10005;SDS011;5042;42.626;23.382;2023-11-19T09:14:10;4.40;;;4.00;;
10005;SDS011;5042;42.626;23.382;2023-11-19T09:16:37;3.93;;;3.63;;
10005;SDS011;5042;42.626;23.382;2023-11-19T09:19:04;4.20;;;3.80;;
10005;SDS011;5042;42.626;23.382;2023-11-19T09:21:32;4.23;;;3.87;;
10005;SDS011;5042;42.626;23.382;2023-11-19T09:24:03;3.93;;;3.63;;
10005;SDS011;5042;42.626;23.382;2023-11-19T09:26:30;4.03;;;3.70;;
10005;SDS011;5042;42.626;23.382;2023-11-19T09:28:57;4.50;;;4.10;;
10005;SDS011;5042;42.626;23.382;2023-11-19T09:31:23;4.03;;;3.70;;
10005;SDS011;5042;42.626;23.382;2023-11-19T09:33:50;4.10;;;3.70;;
10005;SDS011;5042;42.626;23.382;2023-11-19T09:36:17;3.80;;;3.50;;
10005;SDS011;5042;42.626;23.382;2023-11-19T09:38:45;3.83;;;3.53;;
10005;SDS011;5042;42.626;23.382;2023-11-19T09:41:12;3.63;;;3.33;;
10005;SDS011;5042;42.626;23.382;2023-11-19T09:43:39;3.90;;;3.60;;
10005;SDS011;5042;42.626;23.382;2023-11-19T09:46:07;3.83;;;3.53;;
10005;SDS011;5042;42.626;23.382;2023-11-19T09:48:37;3.80;;;3.40;;
10005;SDS011;5042;42.626;23.382;2023-11-19T09:51:05;4.53;;;3.80;;
10005;SDS011;5042;42.626;23.382;2023-11-19T09:53:32;4.53;;;4.13;;
10005;SDS011;5042;42.626;23.382;2023-11-19T09:56:01;4.07;;;3.67;;
10005;SDS011;5042;42.626;23.382;2023-11-19T09:58:29;3.70;;;3.40;;
10005;SDS011;5042;42.626;23.382;2023-11-19T10:00:55;3.53;;;3.23;;
10005;SDS011;5042;42.626;23.382;2023-11-19T10:03:24;4.20;;;3.80;;
10005;SDS011;5042;42.626;23.382;2023-11-19T10:05:53;3.70;;;3.40;;
10005;SDS011;5042;42.626;23.382;2023-11-19T10:08:21;3.80;;;3.50;;
10005;SDS011;5042;42.626;23.382;2023-11-19T10:10:48;4.10;;;3.70;;
10005;SDS011;5042;42.626;23.382;2023-11-19T10:13:16;3.70;;;3.40;;
10005;SDS011;5042;42.626;23.382;2023-11-19T10:15:43;5.07;;;3.80;;
10005;SDS011;5042;42.626;23.382;2023-11-19T10:18:10;4.57;;;3.37;;
10005;SDS011;5042;42.626;23.382;2023-11-19T10:20:37;4.57;;;4.07;;
10005;SDS011;5042;42.626;23.382;2023-11-19T10:23:06;3.97;;;3.67;;
10005;SDS011;5042;42.626;23.382;2023-11-19T10:25:34;4.33;;;3.93;;
10005;SDS011;5042;42.626;23.382;2023-11-19T10:28:00;4.27;;;3.87;;
10005;SDS011;5042;42.626;23.382;2023-11-19T10:30:30;4.03;;;3.63;;
10005;SDS011;5042;42.626;23.382;2023-11-19T10:33:05;3.70;;;3.40;;
10005;SDS011;5042;42.626;23.382;2023-11-19T10:35:33;3.70;;;3.40;;
10005;SDS011;5042;42.626;23.382;2023-11-19T10:38:00;3.90;;;3.60;;
10005;SDS011;5042;42.626;23.382;2023-11-19T10:40:37;3.90;;;3.60;;
10005;SDS011;5042;42.626;23.382;2023-11-19T10:43:06;4.50;;;3.77;;
10005;SDS011;5042;42.626;23.382;2023-11-19T10:45:35;4.83;;;4.03;;
10005;SDS011;5042;42.626;23.382;2023-11-19T10:48:03;3.30;;;3.00;;
10005;SDS011;5042;42.626;23.382;2023-11-19T10:50:32;3.43;;;3.13;;
10005;SDS011;5042;42.626;23.382;2023-11-19T10:53:00;2.70;;;2.50;;
10005;SDS011;5042;42.626;23.382;2023-11-19T10:55:28;2.97;;;2.77;;
10005;SDS011;5042;42.626;23.382;2023-11-19T10:57:58;3.63;;;3.03;;
10005;SDS011;5042;42.626;23.382;2023-11-19T11:00:26;3.13;;;2.83;;
10005;SDS011;5042;42.626;23.382;2023-11-19T11:03:01;3.53;;;3.23;;
10005;SDS011;5042;42.626;23.382;2023-11-19T11:05:29;3.30;;;3.00;;
10005;SDS011;5042;42.626;23.382;2023-11-19T11:08:00;3.03;;;2.80;;
10005;SDS011;5042;42.626;23.382;2023-11-19T11:10:27;3.40;;;3.10;;
10005;SDS011;5042;42.626;23.382;2023-11-19T11:12:59;3.50;;;3.13;;
10005;SDS011;5042;42.626;23.382;2023-11-19T11:15:26;3.20;;;2.90;;
10005;SDS011;5042;42.626;23.382;2023-11-19T11:17:56;3.70;;;3.27;;
10005;SDS011;5042;42.626;23.382;2023-11-19T11:20:28;3.90;;;3.50;;
10005;SDS011;5042;42.626;23.382;2023-11-19T11:22:59;3.20;;;3.00;;
10005;SDS011;5042;42.626;23.382;2023-11-19T11:25:39;3.30;;;3.10;;
10005;SDS011;5042;42.626;23.382;2023-11-19T11:28:18;3.33;;;3.03;;
10005;SDS011;5042;42.626;23.382;2023-11-19T11:30:55;3.00;;;2.80;;
10005;SDS011;5042;42.626;23.382;2023-11-19T11:33:40;3.43;;;3.13;;
10005;SDS011;5042;42.626;23.382;2023-11-19T11:36:22;3.67;;;3.37;;
10005;SDS011;5042;42.626;23.382;2023-11-19T11:38:49;3.73;;;3.43;;
10005;SDS011;5042;42.626;23.382;2023-11-19T11:41:17;4.33;;;3.50;;
10005;SDS011;5042;42.626;23.382;2023-11-19T11:43:46;3.43;;;3.20;;
10005;SDS011;5042;42.626;23.382;2023-11-19T11:49:13;3.90;;;3.50;;
10005;SDS011;5042;42.626;23.382;2023-11-19T11:51:59;3.93;;;3.63;;
10005;SDS011;5042;42.626;23.382;2023-11-19T11:54:32;5.17;;;3.50;;
10005;SDS011;5042;42.626;23.382;2023-11-19T11:57:09;4.07;;;3.50;;
10005;SDS011;5042;42.626;23.382;2023-11-19T11:59:47;3.73;;;3.43;;
10005;SDS011;5042;42.626;23.382;2023-11-19T12:02:15;3.70;;;3.40;;
10005;SDS011;5042;42.626;23.382;2023-11-19T12:04:46;4.00;;;3.60;;
10005;SDS011;5042;42.626;23.382;2023-11-19T12:07:16;3.80;;;3.57;;
10005;SDS011;5042;42.626;23.382;2023-11-19T12:09:47;3.80;;;3.30;;
10005;SDS011;5042;42.626;23.382;2023-11-19T12:12:17;3.77;;;3.47;;
10005;SDS011;5042;42.626;23.382;2023-11-19T12:17:40;3.80;;;3.50;;
10005;SDS011;5042;42.626;23.382;2023-11-19T12:20:10;3.50;;;3.20;;
10005;SDS011;5042;42.626;23.382;2023-11-19T12:22:39;3.87;;;3.50;;
10005;SDS011;5042;42.626;23.382;2023-11-19T12:25:07;4.47;;;3.83;;
10005;SDS011;5042;42.626;23.382;2023-11-19T12:27:35;3.23;;;3.03;;
10005;SDS011;5042;42.626;23.382;2023-11-19T12:30:02;3.93;;;3.63;;
10005;SDS011;5042;42.626;23.382;2023-11-19T12:32:37;4.03;;;3.73;;
10005;SDS011;5042;42.626;23.382;2023-11-19T12:35:05;3.87;;;3.57;;
10005;SDS011;5042;42.626;23.382;2023-11-19T12:37:32;3.70;;;3.40;;
10005;SDS011;5042;42.626;23.382;2023-11-19T12:40:02;4.03;;;3.73;;
10005;SDS011;5042;42.626;23.382;2023-11-19T12:42:36;4.33;;;3.93;;
10005;SDS011;5042;42.626;23.382;2023-11-19T12:45:04;4.10;;;3.80;;
10005;SDS011;5042;42.626;23.382;2023-11-19T12:47:31;4.03;;;3.73;;
10005;SDS011;5042;42.626;23.382;2023-11-19T12:49:58;3.97;;;3.67;;
10005;SDS011;5042;42.626;23.382;2023-11-19T12:52:25;4.30;;;3.90;;
10005;SDS011;5042;42.626;23.382;2023-11-19T12:54:52;5.70;;;3.90;;
10005;SDS011;5042;42.626;23.382;2023-11-19T12:57:21;4.83;;;4.33;;
10005;SDS011;5042;42.626;23.382;2023-11-19T13:00:02;5.07;;;4.57;;
10005;SDS011;5042;42.626;23.382;2023-11-19T13:05:22;4.53;;;4.00;;
10005;SDS011;5042;42.626;23.382;2023-11-19T13:07:59;4.43;;;4.03;;
10005;SDS011;5042;42.626;23.382;2023-11-19T13:10:26;4.40;;;4.00;;
10005;SDS011;5042;42.626;23.382;2023-11-19T13:13:03;4.50;;;4.10;;
10005;SDS011;5042;42.626;23.382;2023-11-19T13:15:31;4.20;;;3.80;;
10005;SDS011;5042;42.626;23.382;2023-11-19T13:17:58;4.47;;;4.07;;
10005;SDS011;5042;42.626;23.382;2023-11-19T13:20:25;3.83;;;3.53;;
10005;SDS011;5042;42.626;23.382;2023-11-19T13:22:58;5.37;;;4.43;;
10005;SDS011;5042;42.626;23.382;2023-11-19T13:25:26;4.40;;;4.00;;
10005;SDS011;5042;42.626;23.382;2023-11-19T13:27:53;4.40;;;4.00;;
10005;SDS011;5042;42.626;23.382;2023-11-19T13:30:22;4.57;;;4.00;;
10005;SDS011;5042;42.626;23.382;2023-11-19T13:32:49;4.33;;;4.03;;
10005;SDS011;5042;42.626;23.382;2023-11-19T13:35:17;3.33;;;3.03;;
10005;SDS011;5042;42.626;23.382;2023-11-19T13:37:44;3.80;;;3.50;;
10005;SDS011;5042;42.626;23.382;2023-11-19T13:40:11;4.03;;;3.73;;
10005;SDS011;5042;42.626;23.382;2023-11-19T13:42:40;4.17;;;3.80;;
10005;SDS011;5042;42.626;23.382;2023-11-19T13:45:08;4.63;;;4.17;;
10005;SDS011;5042;42.626;23.382;2023-11-19T13:47:39;4.17;;;3.77;;
10005;SDS011;5042;42.626;23.382;2023-11-19T13:50:08;4.50;;;4.10;;
10005;SDS011;5042;42.626;23.382;2023-11-19T13:52:35;5.23;;;4.20;;
10005;SDS011;5042;42.626;23.382;2023-11-19T13:55:04;5.03;;;3.90;;
10005;SDS011;5042;42.626;23.382;2023-11-19T13:57:33;4.30;;;3.90;;
10005;SDS011;5042;42.626;23.382;2023-11-19T14:00:00;4.33;;;4.00;;
10005;SDS011;5042;42.626;23.382;2023-11-19T14:02:28;3.97;;;3.57;;
10005;SDS011;5042;42.626;23.382;2023-11-19T14:04:56;3.27;;;2.97;;
10005;SDS011;5042;42.626;23.382;2023-11-19T14:07:23;3.80;;;3.50;;
10005;SDS011;5042;42.626;23.382;2023-11-19T14:09:50;3.70;;;3.40;;
10005;SDS011;5042;42.626;23.382;2023-11-19T14:12:16;4.10;;;3.70;;
10005;SDS011;5042;42.626;23.382;2023-11-19T14:14:43;4.10;;;3.70;;
10005;SDS011;5042;42.626;23.382;2023-11-19T14:17:10;4.03;;;3.63;;
10005;SDS011;5042;42.626;23.382;2023-11-19T14:19:37;4.47;;;4.07;;
10005;SDS011;5042;42.626;23.382;2023-11-19T14:22:06;4.07;;;3.73;;
10005;SDS011;5042;42.626;23.382;2023-11-19T14:24:33;5.13;;;3.90;;
10005;SDS011;5042;42.626;23.382;2023-11-19T14:27:00;4.27;;;3.87;;
10005;SDS011;5042;42.626;23.382;2023-11-19T14:29:28;4.53;;;4.13;;
10005;SDS011;5042;42.626;23.382;2023-11-19T14:31:55;4.57;;;4.10;;
10005;SDS011;5042;42.626;23.382;2023-11-19T14:34:22;4.40;;;4.00;;
10005;SDS011;5042;42.626;23.382;2023-11-19T14:36:50;5.23;;;4.20;;
10005;SDS011;5042;42.626;23.382;2023-11-19T14:39:18;4.53;;;4.00;;
10005;SDS011;5042;42.626;23.382;2023-11-19T14:41:44;4.87;;;4.10;;
10005;SDS011;5042;42.626;23.382;2023-11-19T14:44:11;4.50;;;4.10;;
10005;SDS011;5042;42.626;23.382;2023-11-19T14:46:38;4.20;;;3.70;;
10005;SDS011;5042;42.626;23.382;2023-11-19T14:49:05;4.17;;;3.83;;
10005;SDS011;5042;42.626;23.382;2023-11-19T14:51:35;4.50;;;4.10;;
10005;SDS011;5042;42.626;23.382;2023-11-19T14:54:02;5.00;;;4.30;;
10005;SDS011;5042;42.626;23.382;2023-11-19T14:56:30;4.50;;;4.10;;
10005;SDS011;5042;42.626;23.382;2023-11-19T14:58:57;4.57;;;4.17;;
10005;SDS011;5042;42.626;23.382;2023-11-19T15:01:24;5.00;;;4.50;;
10005;SDS011;5042;42.626;23.382;2023-11-19T15:03:53;4.50;;;4.10;;
10005;SDS011;5042;42.626;23.382;2023-11-19T15:06:22;4.63;;;4.23;;